Main page
METAR-TAF:

METAR-TAF

Airports :

La Tontouta International Airport

Nouméa / La Tontouta, New Caledonia

latitude: 22-01S, longitude: 166-13E, elevation: 16 m

Current weather observation

The report was made 30 minutes ago, at 05:00 UTC
Wind 18 kt from the Southeast
Temperature 26°C
Humidity 74%
Pressure 1013 hPa
Visibility 10 km or more
Broken clouds at a height of 5600 ft

METAR: NWWW 240500Z AUTO 13018KT 9999 BKN056 26/21 Q1013 BECMG VRB02KT

Time: 16:30 (05:30 UTC)

Forecast

The report was made 6 hours and 30 minutes ago, at 23:00 UTC
Forecast valid from 24 at 00 UTC to 24 at 24 UTC
Wind 2 kt from variable directions
Visibility 10 km or more
Scattered clouds at a height of 4400 ft
Becoming
from 24 at 00 UTC to 24 at 02 UTC
Wind 14 kt from the Southeast
Becoming
from 24 at 06 UTC to 24 at 08 UTC
Wind 2 kt from variable directions

TAF: NWWW 232300Z 2400/2424 VRB02KT 9999 SCT044 BECMG 2400/2402 14014KT BECMG 2406/2408 VRB02KT

Weather observations and forecasts of more than 4000 airports (METAR and TAF reports).

The available stations are represented by yellow and red dots on the map.

Hover mouse over dot to see the name of the station.

Then click to see weather observations and forecasts.

To change the map : click on the green buttons with a black cross to zoom in, on the green button with a dash to zoom out, or on the green arrows for adjacent maps.


METAR-TAF: